Terminal Aerodrome Forecast
Issued by NWS Grand Junction, CO

Home | Current Version | Previous Version | Text Only | Print | Product List | Glossary On
Versions: 1 2 3 4 5 6 7 8 9 10 11 12 13 14 15 16 17 18 19 20 21 22 23 24 25 26 27 28 29 30 31 32 33 34
000
FTUS45 KGJT 290527
TAFGJT
TAF
KGJT 290527Z 2906/3006 06005KT P6SM FEW110 SCT200
     FM290800 10005KT P6SM SCT200
     FM291700 17004KT P6SM FEW250
     FM292000 29008KT P6SM FEW110 SCT250
     FM300200 05005KT P6SM FEW250=

USA.gov is the U.S. government's official web portal to all federal, state and local government web resources and services.